sensor_id;sensor_type;location;lat;lon;timestamp;P1;durP1;ratioP1;P2;durP2;ratioP2
39074;SDS011;24826;52.070;20.970;2023-05-13T00:00:48;11.88;;;6.72;;
39074;SDS011;24826;52.070;20.970;2023-05-13T00:03:32;12.88;;;6.80;;
39074;SDS011;24826;52.070;20.970;2023-05-13T00:06:17;9.90;;;6.53;;
39074;SDS011;24826;52.070;20.970;2023-05-13T00:09:01;9.88;;;6.05;;
39074;SDS011;24826;52.070;20.970;2023-05-13T00:11:46;16.23;;;7.43;;
39074;SDS011;24826;52.070;20.970;2023-05-13T00:14:30;9.90;;;6.40;;
39074;SDS011;24826;52.070;20.970;2023-05-13T00:17:15;12.32;;;6.80;;
39074;SDS011;24826;52.070;20.970;2023-05-13T00:19:59;10.05;;;5.95;;
39074;SDS011;24826;52.070;20.970;2023-05-13T00:22:44;11.35;;;6.07;;
39074;SDS011;24826;52.070;20.970;2023-05-13T00:25:28;12.35;;;6.30;;
39074;SDS011;24826;52.070;20.970;2023-05-13T00:28:13;11.73;;;7.10;;
39074;SDS011;24826;52.070;20.970;2023-05-13T00:30:57;8.45;;;5.90;;
39074;SDS011;24826;52.070;20.970;2023-05-13T00:33:42;9.75;;;6.18;;
39074;SDS011;24826;52.070;20.970;2023-05-13T00:36:27;10.52;;;6.40;;
39074;SDS011;24826;52.070;20.970;2023-05-13T00:39:11;11.10;;;5.90;;
39074;SDS011;24826;52.070;20.970;2023-05-13T00:41:55;9.68;;;5.88;;
39074;SDS011;24826;52.070;20.970;2023-05-13T00:44:40;10.07;;;5.95;;
39074;SDS011;24826;52.070;20.970;2023-05-13T00:47:24;9.57;;;6.40;;
39074;SDS011;24826;52.070;20.970;2023-05-13T00:50:10;9.05;;;6.28;;
39074;SDS011;24826;52.070;20.970;2023-05-13T00:52:54;11.05;;;6.18;;
39074;SDS011;24826;52.070;20.970;2023-05-13T00:55:41;11.43;;;6.53;;
39074;SDS011;24826;52.070;20.970;2023-05-13T00:58:26;11.07;;;6.28;;
39074;SDS011;24826;52.070;20.970;2023-05-13T01:01:16;10.00;;;6.18;;
39074;SDS011;24826;52.070;20.970;2023-05-13T01:04:26;10.65;;;6.20;;
39074;SDS011;24826;52.070;20.970;2023-05-13T01:13:41;10.10;;;6.05;;
39074;SDS011;24826;52.070;20.970;2023-05-13T01:16:35;8.75;;;5.28;;
39074;SDS011;24826;52.070;20.970;2023-05-13T01:19:34;9.63;;;6.35;;
39074;SDS011;24826;52.070;20.970;2023-05-13T01:22:34;8.07;;;5.80;;
39074;SDS011;24826;52.070;20.970;2023-05-13T01:25:19;9.35;;;5.85;;
39074;SDS011;24826;52.070;20.970;2023-05-13T01:28:04;10.48;;;5.82;;
39074;SDS011;24826;52.070;20.970;2023-05-13T01:30:49;9.88;;;5.85;;
39074;SDS011;24826;52.070;20.970;2023-05-13T01:33:34;8.90;;;5.57;;
39074;SDS011;24826;52.070;20.970;2023-05-13T01:36:18;8.68;;;5.15;;
39074;SDS011;24826;52.070;20.970;2023-05-13T01:39:03;9.27;;;5.22;;
39074;SDS011;24826;52.070;20.970;2023-05-13T01:41:49;9.27;;;5.47;;
39074;SDS011;24826;52.070;20.970;2023-05-13T01:44:33;9.40;;;5.43;;
39074;SDS011;24826;52.070;20.970;2023-05-13T01:47:19;12.30;;;5.93;;
39074;SDS011;24826;52.070;20.970;2023-05-13T01:50:03;9.10;;;5.78;;
39074;SDS011;24826;52.070;20.970;2023-05-13T01:52:48;9.18;;;5.65;;
39074;SDS011;24826;52.070;20.970;2023-05-13T01:55:32;8.40;;;5.57;;
39074;SDS011;24826;52.070;20.970;2023-05-13T01:58:17;10.40;;;6.22;;
39074;SDS011;24826;52.070;20.970;2023-05-13T02:01:01;9.50;;;5.45;;
39074;SDS011;24826;52.070;20.970;2023-05-13T02:03:46;9.10;;;5.80;;
39074;SDS011;24826;52.070;20.970;2023-05-13T02:06:30;9.88;;;5.68;;
39074;SDS011;24826;52.070;20.970;2023-05-13T02:09:15;9.32;;;5.85;;
39074;SDS011;24826;52.070;20.970;2023-05-13T02:11:59;8.55;;;5.65;;
39074;SDS011;24826;52.070;20.970;2023-05-13T02:14:44;7.93;;;5.15;;
39074;SDS011;24826;52.070;20.970;2023-05-13T02:17:28;7.95;;;5.38;;
39074;SDS011;24826;52.070;20.970;2023-05-13T02:20:13;10.18;;;5.22;;
39074;SDS011;24826;52.070;20.970;2023-05-13T02:22:58;9.15;;;5.72;;
39074;SDS011;24826;52.070;20.970;2023-05-13T02:25:43;9.55;;;5.50;;
39074;SDS011;24826;52.070;20.970;2023-05-13T02:28:27;8.95;;;5.63;;
39074;SDS011;24826;52.070;20.970;2023-05-13T02:31:12;9.07;;;5.53;;
39074;SDS011;24826;52.070;20.970;2023-05-13T02:33:57;8.85;;;5.68;;
39074;SDS011;24826;52.070;20.970;2023-05-13T02:36:41;8.00;;;5.50;;
39074;SDS011;24826;52.070;20.970;2023-05-13T02:39:25;9.73;;;5.32;;
39074;SDS011;24826;52.070;20.970;2023-05-13T02:42:10;7.95;;;4.90;;
39074;SDS011;24826;52.070;20.970;2023-05-13T02:44:54;8.40;;;5.60;;
39074;SDS011;24826;52.070;20.970;2023-05-13T02:47:39;8.80;;;5.35;;
39074;SDS011;24826;52.070;20.970;2023-05-13T02:50:23;9.15;;;5.60;;
39074;SDS011;24826;52.070;20.970;2023-05-13T02:53:08;8.32;;;5.00;;
39074;SDS011;24826;52.070;20.970;2023-05-13T02:55:52;8.57;;;5.28;;
39074;SDS011;24826;52.070;20.970;2023-05-13T02:58:37;9.48;;;5.45;;
39074;SDS011;24826;52.070;20.970;2023-05-13T03:01:21;9.18;;;4.97;;
39074;SDS011;24826;52.070;20.970;2023-05-13T03:04:06;6.90;;;4.60;;
39074;SDS011;24826;52.070;20.970;2023-05-13T03:06:50;7.90;;;4.72;;
39074;SDS011;24826;52.070;20.970;2023-05-13T03:09:35;9.23;;;5.57;;
39074;SDS011;24826;52.070;20.970;2023-05-13T03:12:21;7.45;;;4.95;;
39074;SDS011;24826;52.070;20.970;2023-05-13T03:15:06;7.75;;;4.57;;
39074;SDS011;24826;52.070;20.970;2023-05-13T03:17:51;7.95;;;5.30;;
39074;SDS011;24826;52.070;20.970;2023-05-13T03:20:36;7.10;;;4.88;;
39074;SDS011;24826;52.070;20.970;2023-05-13T03:23:20;8.65;;;5.32;;
39074;SDS011;24826;52.070;20.970;2023-05-13T03:26:04;8.98;;;5.53;;
39074;SDS011;24826;52.070;20.970;2023-05-13T03:28:48;7.47;;;5.22;;
39074;SDS011;24826;52.070;20.970;2023-05-13T03:31:32;7.78;;;4.95;;
39074;SDS011;24826;52.070;20.970;2023-05-13T03:34:16;8.18;;;5.40;;
39074;SDS011;24826;52.070;20.970;2023-05-13T03:37:01;8.48;;;5.40;;
39074;SDS011;24826;52.070;20.970;2023-05-13T03:39:45;9.25;;;5.35;;
39074;SDS011;24826;52.070;20.970;2023-05-13T03:42:30;9.07;;;5.60;;
39074;SDS011;24826;52.070;20.970;2023-05-13T03:45:14;8.75;;;5.68;;
39074;SDS011;24826;52.070;20.970;2023-05-13T03:47:58;7.82;;;4.60;;
39074;SDS011;24826;52.070;20.970;2023-05-13T03:50:42;7.95;;;5.07;;
39074;SDS011;24826;52.070;20.970;2023-05-13T03:53:27;8.18;;;4.55;;
39074;SDS011;24826;52.070;20.970;2023-05-13T03:56:12;7.55;;;5.05;;
39074;SDS011;24826;52.070;20.970;2023-05-13T03:58:57;7.22;;;4.90;;
39074;SDS011;24826;52.070;20.970;2023-05-13T04:01:41;6.55;;;4.70;;
39074;SDS011;24826;52.070;20.970;2023-05-13T04:04:26;7.60;;;5.07;;
39074;SDS011;24826;52.070;20.970;2023-05-13T04:07:10;6.68;;;4.55;;
39074;SDS011;24826;52.070;20.970;2023-05-13T04:09:54;7.90;;;4.68;;
39074;SDS011;24826;52.070;20.970;2023-05-13T04:12:38;8.18;;;4.97;;
39074;SDS011;24826;52.070;20.970;2023-05-13T04:15:23;8.32;;;4.47;;
39074;SDS011;24826;52.070;20.970;2023-05-13T04:18:07;7.45;;;4.75;;
39074;SDS011;24826;52.070;20.970;2023-05-13T04:20:52;7.47;;;5.22;;
39074;SDS011;24826;52.070;20.970;2023-05-13T04:23:36;7.85;;;4.78;;
39074;SDS011;24826;52.070;20.970;2023-05-13T04:26:20;7.32;;;4.97;;
39074;SDS011;24826;52.070;20.970;2023-05-13T04:29:04;7.75;;;4.80;;
39074;SDS011;24826;52.070;20.970;2023-05-13T04:31:48;7.75;;;4.45;;
39074;SDS011;24826;52.070;20.970;2023-05-13T04:34:32;8.15;;;4.97;;
39074;SDS011;24826;52.070;20.970;2023-05-13T04:37:17;8.10;;;4.82;;
39074;SDS011;24826;52.070;20.970;2023-05-13T04:40:02;7.18;;;4.45;;
39074;SDS011;24826;52.070;20.970;2023-05-13T04:42:46;8.60;;;4.85;;
39074;SDS011;24826;52.070;20.970;2023-05-13T04:45:37;7.30;;;4.70;;
39074;SDS011;24826;52.070;20.970;2023-05-13T04:48:22;6.65;;;4.45;;
39074;SDS011;24826;52.070;20.970;2023-05-13T04:51:06;7.20;;;4.70;;
39074;SDS011;24826;52.070;20.970;2023-05-13T04:53:50;7.88;;;4.60;;
39074;SDS011;24826;52.070;20.970;2023-05-13T04:56:34;7.47;;;5.03;;
39074;SDS011;24826;52.070;20.970;2023-05-13T04:59:19;6.88;;;4.85;;
39074;SDS011;24826;52.070;20.970;2023-05-13T05:02:03;7.07;;;4.80;;
39074;SDS011;24826;52.070;20.970;2023-05-13T05:04:48;6.97;;;4.90;;
39074;SDS011;24826;52.070;20.970;2023-05-13T05:07:33;7.97;;;4.90;;
39074;SDS011;24826;52.070;20.970;2023-05-13T05:10:17;7.00;;;4.72;;
39074;SDS011;24826;52.070;20.970;2023-05-13T05:13:01;8.45;;;5.13;;
39074;SDS011;24826;52.070;20.970;2023-05-13T05:15:46;7.60;;;4.57;;
39074;SDS011;24826;52.070;20.970;2023-05-13T05:18:30;7.13;;;5.00;;
39074;SDS011;24826;52.070;20.970;2023-05-13T05:21:14;6.22;;;4.38;;
39074;SDS011;24826;52.070;20.970;2023-05-13T05:24:01;6.82;;;4.50;;
39074;SDS011;24826;52.070;20.970;2023-05-13T05:26:45;6.60;;;4.45;;
39074;SDS011;24826;52.070;20.970;2023-05-13T05:29:29;7.57;;;4.68;;
39074;SDS011;24826;52.070;20.970;2023-05-13T05:32:13;7.07;;;4.72;;
39074;SDS011;24826;52.070;20.970;2023-05-13T05:34:58;6.90;;;4.68;;
39074;SDS011;24826;52.070;20.970;2023-05-13T05:37:45;6.85;;;4.28;;
39074;SDS011;24826;52.070;20.970;2023-05-13T05:40:30;7.03;;;4.53;;
39074;SDS011;24826;52.070;20.970;2023-05-13T05:43:16;7.88;;;4.50;;
39074;SDS011;24826;52.070;20.970;2023-05-13T05:46:00;7.38;;;4.70;;
39074;SDS011;24826;52.070;20.970;2023-05-13T05:48:45;6.43;;;4.40;;
39074;SDS011;24826;52.070;20.970;2023-05-13T05:51:29;6.38;;;4.57;;
39074;SDS011;24826;52.070;20.970;2023-05-13T05:54:13;7.13;;;4.55;;
39074;SDS011;24826;52.070;20.970;2023-05-13T05:56:58;7.50;;;4.47;;
39074;SDS011;24826;52.070;20.970;2023-05-13T05:59:42;6.90;;;4.38;;
39074;SDS011;24826;52.070;20.970;2023-05-13T06:02:27;6.90;;;4.28;;
39074;SDS011;24826;52.070;20.970;2023-05-13T06:05:11;6.95;;;4.40;;
39074;SDS011;24826;52.070;20.970;2023-05-13T06:07:55;6.38;;;4.20;;
39074;SDS011;24826;52.070;20.970;2023-05-13T06:10:40;7.05;;;4.47;;
39074;SDS011;24826;52.070;20.970;2023-05-13T06:13:24;6.65;;;4.25;;
39074;SDS011;24826;52.070;20.970;2023-05-13T06:16:09;6.57;;;4.07;;
39074;SDS011;24826;52.070;20.970;2023-05-13T06:18:54;6.47;;;4.40;;
39074;SDS011;24826;52.070;20.970;2023-05-13T06:21:38;6.95;;;4.20;;
39074;SDS011;24826;52.070;20.970;2023-05-13T06:24:23;7.00;;;4.30;;
39074;SDS011;24826;52.070;20.970;2023-05-13T06:27:08;5.90;;;4.18;;
39074;SDS011;24826;52.070;20.970;2023-05-13T06:29:53;7.68;;;4.55;;
39074;SDS011;24826;52.070;20.970;2023-05-13T06:32:38;7.65;;;4.78;;
39074;SDS011;24826;52.070;20.970;2023-05-13T06:35:22;6.22;;;4.28;;
39074;SDS011;24826;52.070;20.970;2023-05-13T06:38:07;5.95;;;4.35;;
39074;SDS011;24826;52.070;20.970;2023-05-13T06:40:51;6.38;;;4.05;;
39074;SDS011;24826;52.070;20.970;2023-05-13T06:43:35;6.47;;;4.38;;
39074;SDS011;24826;52.070;20.970;2023-05-13T06:46:19;5.80;;;4.28;;
39074;SDS011;24826;52.070;20.970;2023-05-13T06:49:04;5.90;;;4.38;;
39074;SDS011;24826;52.070;20.970;2023-05-13T06:51:48;7.80;;;4.68;;
39074;SDS011;24826;52.070;20.970;2023-05-13T06:54:33;6.75;;;4.28;;
39074;SDS011;24826;52.070;20.970;2023-05-13T06:57:17;9.27;;;4.50;;
39074;SDS011;24826;52.070;20.970;2023-05-13T07:00:01;6.43;;;4.07;;
39074;SDS011;24826;52.070;20.970;2023-05-13T07:02:46;6.82;;;4.72;;
39074;SDS011;24826;52.070;20.970;2023-05-13T07:05:31;9.48;;;4.60;;
39074;SDS011;24826;52.070;20.970;2023-05-13T07:08:16;7.45;;;4.47;;
39074;SDS011;24826;52.070;20.970;2023-05-13T07:11:02;6.85;;;4.20;;
39074;SDS011;24826;52.070;20.970;2023-05-13T07:13:46;14.60;;;4.60;;
39074;SDS011;24826;52.070;20.970;2023-05-13T07:16:31;11.13;;;5.18;;
39074;SDS011;24826;52.070;20.970;2023-05-13T07:19:15;23.42;;;9.15;;
39074;SDS011;24826;52.070;20.970;2023-05-13T07:22:00;16.67;;;8.07;;
39074;SDS011;24826;52.070;20.970;2023-05-13T07:24:44;19.08;;;9.30;;
39074;SDS011;24826;52.070;20.970;2023-05-13T07:27:29;18.48;;;8.55;;
39074;SDS011;24826;52.070;20.970;2023-05-13T07:30:13;20.40;;;9.25;;
39074;SDS011;24826;52.070;20.970;2023-05-13T07:32:58;19.95;;;8.32;;
39074;SDS011;24826;52.070;20.970;2023-05-13T07:35:42;16.95;;;7.15;;
39074;SDS011;24826;52.070;20.970;2023-05-13T07:38:27;18.40;;;7.63;;
39074;SDS011;24826;52.070;20.970;2023-05-13T07:41:11;16.10;;;8.43;;
39074;SDS011;24826;52.070;20.970;2023-05-13T07:43:55;21.63;;;10.20;;
39074;SDS011;24826;52.070;20.970;2023-05-13T07:46:40;23.00;;;10.38;;
39074;SDS011;24826;52.070;20.970;2023-05-13T07:49:24;28.50;;;11.85;;
39074;SDS011;24826;52.070;20.970;2023-05-13T07:52:08;22.17;;;9.77;;
39074;SDS011;24826;52.070;20.970;2023-05-13T07:54:53;20.83;;;8.43;;
39074;SDS011;24826;52.070;20.970;2023-05-13T07:57:38;18.88;;;7.55;;
39074;SDS011;24826;52.070;20.970;2023-05-13T08:00:22;18.77;;;7.53;;
39074;SDS011;24826;52.070;20.970;2023-05-13T08:03:06;19.08;;;7.53;;
39074;SDS011;24826;52.070;20.970;2023-05-13T08:05:51;19.45;;;7.18;;
39074;SDS011;24826;52.070;20.970;2023-05-13T08:08:35;29.42;;;8.23;;
39074;SDS011;24826;52.070;20.970;2023-05-13T08:11:20;18.05;;;7.47;;
39074;SDS011;24826;52.070;20.970;2023-05-13T08:14:04;18.08;;;7.10;;
39074;SDS011;24826;52.070;20.970;2023-05-13T08:16:50;18.55;;;7.20;;
39074;SDS011;24826;52.070;20.970;2023-05-13T08:19:34;18.15;;;6.88;;
39074;SDS011;24826;52.070;20.970;2023-05-13T08:22:19;14.68;;;6.43;;
39074;SDS011;24826;52.070;20.970;2023-05-13T08:25:04;13.88;;;5.78;;
39074;SDS011;24826;52.070;20.970;2023-05-13T08:27:50;13.82;;;6.22;;
39074;SDS011;24826;52.070;20.970;2023-05-13T08:30:34;18.88;;;6.20;;
39074;SDS011;24826;52.070;20.970;2023-05-13T08:33:19;13.55;;;6.00;;
39074;SDS011;24826;52.070;20.970;2023-05-13T08:36:04;13.23;;;6.43;;
39074;SDS011;24826;52.070;20.970;2023-05-13T08:38:48;13.13;;;5.72;;
39074;SDS011;24826;52.070;20.970;2023-05-13T08:41:33;12.85;;;5.63;;
39074;SDS011;24826;52.070;20.970;2023-05-13T08:44:18;14.25;;;5.60;;
39074;SDS011;24826;52.070;20.970;2023-05-13T08:50:09;12.63;;;5.05;;
39074;SDS011;24826;52.070;20.970;2023-05-13T08:52:56;12.20;;;6.25;;
39074;SDS011;24826;52.070;20.970;2023-05-13T08:55:41;16.58;;;5.82;;
39074;SDS011;24826;52.070;20.970;2023-05-13T08:58:25;11.88;;;5.40;;
39074;SDS011;24826;52.070;20.970;2023-05-13T09:01:11;10.85;;;5.43;;
39074;SDS011;24826;52.070;20.970;2023-05-13T09:04:00;14.43;;;6.63;;
39074;SDS011;24826;52.070;20.970;2023-05-13T09:06:46;12.90;;;5.80;;
39074;SDS011;24826;52.070;20.970;2023-05-13T09:09:31;11.68;;;5.35;;
39074;SDS011;24826;52.070;20.970;2023-05-13T09:15:29;14.38;;;5.10;;
39074;SDS011;24826;52.070;20.970;2023-05-13T09:18:13;13.40;;;5.13;;
39074;SDS011;24826;52.070;20.970;2023-05-13T09:21:20;13.93;;;5.20;;
39074;SDS011;24826;52.070;20.970;2023-05-13T09:24:21;12.75;;;5.88;;
39074;SDS011;24826;52.070;20.970;2023-05-13T09:27:06;12.15;;;5.55;;
39074;SDS011;24826;52.070;20.970;2023-05-13T09:30:00;17.73;;;6.18;;
39074;SDS011;24826;52.070;20.970;2023-05-13T09:32:44;16.17;;;5.72;;
39074;SDS011;24826;52.070;20.970;2023-05-13T09:35:49;12.77;;;5.47;;
39074;SDS011;24826;52.070;20.970;2023-05-13T09:38:36;14.40;;;5.30;;
39074;SDS011;24826;52.070;20.970;2023-05-13T09:41:23;14.65;;;5.15;;
39074;SDS011;24826;52.070;20.970;2023-05-13T09:44:09;15.35;;;5.60;;
39074;SDS011;24826;52.070;20.970;2023-05-13T09:46:56;11.52;;;5.20;;
39074;SDS011;24826;52.070;20.970;2023-05-13T09:49:42;12.02;;;5.38;;
39074;SDS011;24826;52.070;20.970;2023-05-13T09:52:28;10.10;;;4.97;;
39074;SDS011;24826;52.070;20.970;2023-05-13T09:55:16;12.85;;;4.72;;
39074;SDS011;24826;52.070;20.970;2023-05-13T09:58:00;11.18;;;4.63;;
39074;SDS011;24826;52.070;20.970;2023-05-13T10:00:46;12.82;;;5.10;;
39074;SDS011;24826;52.070;20.970;2023-05-13T10:03:31;13.20;;;4.65;;
39074;SDS011;24826;52.070;20.970;2023-05-13T10:06:16;13.77;;;4.60;;
39074;SDS011;24826;52.070;20.970;2023-05-13T10:09:01;11.23;;;4.50;;
39074;SDS011;24826;52.070;20.970;2023-05-13T10:11:48;9.85;;;3.97;;
39074;SDS011;24826;52.070;20.970;2023-05-13T10:14:33;9.82;;;4.35;;
39074;SDS011;24826;52.070;20.970;2023-05-13T10:17:23;10.73;;;4.60;;
39074;SDS011;24826;52.070;20.970;2023-05-13T10:20:09;12.73;;;4.83;;
39074;SDS011;24826;52.070;20.970;2023-05-13T10:22:54;12.13;;;4.70;;
39074;SDS011;24826;52.070;20.970;2023-05-13T10:25:40;11.68;;;4.28;;
39074;SDS011;24826;52.070;20.970;2023-05-13T10:28:26;11.20;;;4.28;;
39074;SDS011;24826;52.070;20.970;2023-05-13T10:31:11;9.00;;;4.20;;
39074;SDS011;24826;52.070;20.970;2023-05-13T10:33:55;13.45;;;5.28;;
39074;SDS011;24826;52.070;20.970;2023-05-13T10:36:48;10.70;;;4.60;;
39074;SDS011;24826;52.070;20.970;2023-05-13T10:45:58;9.52;;;3.75;;
39074;SDS011;24826;52.070;20.970;2023-05-13T10:48:47;12.38;;;3.90;;
39074;SDS011;24826;52.070;20.970;2023-05-13T10:51:32;8.13;;;4.00;;
39074;SDS011;24826;52.070;20.970;2023-05-13T10:54:17;7.35;;;3.42;;
39074;SDS011;24826;52.070;20.970;2023-05-13T10:57:03;8.10;;;3.65;;
39074;SDS011;24826;52.070;20.970;2023-05-13T11:05:59;7.03;;;3.72;;
39074;SDS011;24826;52.070;20.970;2023-05-13T11:08:56;6.28;;;3.35;;
39074;SDS011;24826;52.070;20.970;2023-05-13T11:11:44;9.13;;;3.20;;
39074;SDS011;24826;52.070;20.970;2023-05-13T11:14:30;10.23;;;3.20;;
39074;SDS011;24826;52.070;20.970;2023-05-13T11:17:16;7.30;;;2.92;;
39074;SDS011;24826;52.070;20.970;2023-05-13T11:20:02;6.18;;;3.05;;
39074;SDS011;24826;52.070;20.970;2023-05-13T11:22:47;8.52;;;3.17;;
39074;SDS011;24826;52.070;20.970;2023-05-13T11:25:34;7.38;;;3.03;;
39074;SDS011;24826;52.070;20.970;2023-05-13T11:28:27;5.78;;;3.17;;
39074;SDS011;24826;52.070;20.970;2023-05-13T11:31:45;5.82;;;2.85;;
39074;SDS011;24826;52.070;20.970;2023-05-13T11:37:17;8.95;;;3.15;;
39074;SDS011;24826;52.070;20.970;2023-05-13T11:40:02;7.53;;;2.75;;
39074;SDS011;24826;52.070;20.970;2023-05-13T11:42:47;5.88;;;2.75;;
39074;SDS011;24826;52.070;20.970;2023-05-13T11:45:31;4.90;;;2.72;;
39074;SDS011;24826;52.070;20.970;2023-05-13T11:48:20;12.75;;;2.92;;
39074;SDS011;24826;52.070;20.970;2023-05-13T11:51:05;5.10;;;2.65;;
39074;SDS011;24826;52.070;20.970;2023-05-13T11:53:50;6.78;;;2.75;;
39074;SDS011;24826;52.070;20.970;2023-05-13T11:56:36;7.55;;;2.65;;
39074;SDS011;24826;52.070;20.970;2023-05-13T11:59:20;9.00;;;2.75;;
39074;SDS011;24826;52.070;20.970;2023-05-13T12:02:06;5.82;;;2.72;;
39074;SDS011;24826;52.070;20.970;2023-05-13T12:04:51;4.80;;;3.22;;
39074;SDS011;24826;52.070;20.970;2023-05-13T12:07:36;8.50;;;2.72;;
39074;SDS011;24826;52.070;20.970;2023-05-13T12:10:22;5.28;;;2.70;;
39074;SDS011;24826;52.070;20.970;2023-05-13T12:13:08;5.10;;;2.70;;
39074;SDS011;24826;52.070;20.970;2023-05-13T12:15:53;7.72;;;3.17;;
39074;SDS011;24826;52.070;20.970;2023-05-13T12:18:39;7.53;;;2.88;;
39074;SDS011;24826;52.070;20.970;2023-05-13T12:21:23;4.53;;;2.42;;
39074;SDS011;24826;52.070;20.970;2023-05-13T12:24:18;8.38;;;3.10;;
39074;SDS011;24826;52.070;20.970;2023-05-13T12:27:05;8.63;;;2.90;;
39074;SDS011;24826;52.070;20.970;2023-05-13T12:29:53;6.93;;;2.83;;
39074;SDS011;24826;52.070;20.970;2023-05-13T12:32:43;7.72;;;2.58;;
39074;SDS011;24826;52.070;20.970;2023-05-13T12:35:28;5.57;;;2.60;;
39074;SDS011;24826;52.070;20.970;2023-05-13T12:38:19;9.05;;;2.72;;
39074;SDS011;24826;52.070;20.970;2023-05-13T12:41:10;6.47;;;2.88;;
39074;SDS011;24826;52.070;20.970;2023-05-13T12:43:56;7.53;;;2.40;;
39074;SDS011;24826;52.070;20.970;2023-05-13T12:49:49;5.38;;;2.60;;
39074;SDS011;24826;52.070;20.970;2023-05-13T12:52:34;6.65;;;2.38;;
39074;SDS011;24826;52.070;20.970;2023-05-13T12:55:19;6.53;;;2.78;;
39074;SDS011;24826;52.070;20.970;2023-05-13T12:58:06;5.97;;;2.75;;
39074;SDS011;24826;52.070;20.970;2023-05-13T13:00:53;6.60;;;2.40;;
39074;SDS011;24826;52.070;20.970;2023-05-13T13:03:38;9.02;;;2.90;;
39074;SDS011;24826;52.070;20.970;2023-05-13T13:06:22;6.40;;;2.30;;
39074;SDS011;24826;52.070;20.970;2023-05-13T13:09:07;7.05;;;2.60;;
39074;SDS011;24826;52.070;20.970;2023-05-13T13:11:51;7.68;;;2.20;;
39074;SDS011;24826;52.070;20.970;2023-05-13T13:14:35;6.90;;;2.42;;
39074;SDS011;24826;52.070;20.970;2023-05-13T13:17:20;8.10;;;2.28;;
39074;SDS011;24826;52.070;20.970;2023-05-13T13:20:04;4.65;;;2.13;;
39074;SDS011;24826;52.070;20.970;2023-05-13T13:22:51;6.78;;;2.58;;
39074;SDS011;24826;52.070;20.970;2023-05-13T13:25:36;10.25;;;2.38;;
39074;SDS011;24826;52.070;20.970;2023-05-13T13:28:21;10.40;;;3.67;;
39074;SDS011;24826;52.070;20.970;2023-05-13T13:31:05;19.92;;;6.38;;
39074;SDS011;24826;52.070;20.970;2023-05-13T13:33:50;59.15;;;14.82;;
39074;SDS011;24826;52.070;20.970;2023-05-13T13:36:37;46.38;;;12.73;;
39074;SDS011;24826;52.070;20.970;2023-05-13T13:39:21;56.15;;;13.38;;
39074;SDS011;24826;52.070;20.970;2023-05-13T13:42:06;42.53;;;11.10;;
39074;SDS011;24826;52.070;20.970;2023-05-13T13:44:50;44.97;;;11.00;;
39074;SDS011;24826;52.070;20.970;2023-05-13T13:47:34;38.58;;;9.98;;
39074;SDS011;24826;52.070;20.970;2023-05-13T13:50:19;32.03;;;9.02;;
39074;SDS011;24826;52.070;20.970;2023-05-13T13:53:04;37.08;;;8.43;;
39074;SDS011;24826;52.070;20.970;2023-05-13T13:55:48;29.35;;;8.05;;
39074;SDS011;24826;52.070;20.970;2023-05-13T13:58:33;24.98;;;8.40;;
39074;SDS011;24826;52.070;20.970;2023-05-13T14:01:17;24.88;;;7.47;;
39074;SDS011;24826;52.070;20.970;2023-05-13T14:04:09;23.27;;;6.80;;
39074;SDS011;24826;52.070;20.970;2023-05-13T14:06:55;21.98;;;7.00;;
39074;SDS011;24826;52.070;20.970;2023-05-13T14:09:40;24.50;;;6.50;;
39074;SDS011;24826;52.070;20.970;2023-05-13T14:12:24;19.23;;;5.45;;
39074;SDS011;24826;52.070;20.970;2023-05-13T14:15:09;16.52;;;5.80;;
39074;SDS011;24826;52.070;20.970;2023-05-13T14:17:54;13.05;;;4.97;;
39074;SDS011;24826;52.070;20.970;2023-05-13T14:20:39;20.50;;;6.30;;
39074;SDS011;24826;52.070;20.970;2023-05-13T14:23:23;15.20;;;5.07;;
39074;SDS011;24826;52.070;20.970;2023-05-13T14:26:08;21.98;;;4.75;;
39074;SDS011;24826;52.070;20.970;2023-05-13T14:28:53;12.82;;;4.57;;
39074;SDS011;24826;52.070;20.970;2023-05-13T14:31:38;11.27;;;4.45;;
39074;SDS011;24826;52.070;20.970;2023-05-13T14:34:22;13.48;;;4.40;;
39074;SDS011;24826;52.070;20.970;2023-05-13T14:37:07;12.50;;;4.82;;
39074;SDS011;24826;52.070;20.970;2023-05-13T14:39:51;12.68;;;4.18;;
39074;SDS011;24826;52.070;20.970;2023-05-13T14:42:35;9.43;;;3.95;;
39074;SDS011;24826;52.070;20.970;2023-05-13T14:45:20;11.82;;;4.05;;
39074;SDS011;24826;52.070;20.970;2023-05-13T14:48:04;10.73;;;3.15;;
39074;SDS011;24826;52.070;20.970;2023-05-13T14:50:48;15.30;;;4.85;;
39074;SDS011;24826;52.070;20.970;2023-05-13T14:53:33;7.97;;;3.80;;
39074;SDS011;24826;52.070;20.970;2023-05-13T14:56:17;9.13;;;3.30;;
39074;SDS011;24826;52.070;20.970;2023-05-13T14:59:02;7.75;;;3.33;;
39074;SDS011;24826;52.070;20.970;2023-05-13T15:01:46;9.50;;;3.17;;
39074;SDS011;24826;52.070;20.970;2023-05-13T15:04:31;11.27;;;3.95;;
39074;SDS011;24826;52.070;20.970;2023-05-13T15:07:15;9.40;;;4.28;;
39074;SDS011;24826;52.070;20.970;2023-05-13T15:10:00;7.80;;;2.97;;
39074;SDS011;24826;52.070;20.970;2023-05-13T15:12:44;11.30;;;3.35;;
39074;SDS011;24826;52.070;20.970;2023-05-13T15:15:29;9.65;;;3.13;;
39074;SDS011;24826;52.070;20.970;2023-05-13T15:18:14;7.60;;;3.13;;
39074;SDS011;24826;52.070;20.970;2023-05-13T15:20:59;6.78;;;3.10;;
39074;SDS011;24826;52.070;20.970;2023-05-13T15:23:43;9.18;;;4.10;;
39074;SDS011;24826;52.070;20.970;2023-05-13T15:26:28;6.07;;;2.95;;
39074;SDS011;24826;52.070;20.970;2023-05-13T15:29:12;9.38;;;3.22;;
39074;SDS011;24826;52.070;20.970;2023-05-13T15:31:57;6.93;;;3.50;;
39074;SDS011;24826;52.070;20.970;2023-05-13T15:34:42;10.82;;;3.17;;
39074;SDS011;24826;52.070;20.970;2023-05-13T15:37:26;7.50;;;3.08;;
39074;SDS011;24826;52.070;20.970;2023-05-13T15:40:11;6.25;;;3.08;;
39074;SDS011;24826;52.070;20.970;2023-05-13T15:42:56;8.82;;;3.15;;
39074;SDS011;24826;52.070;20.970;2023-05-13T15:45:40;6.50;;;3.13;;
39074;SDS011;24826;52.070;20.970;2023-05-13T15:48:25;8.27;;;3.25;;
39074;SDS011;24826;52.070;20.970;2023-05-13T15:51:09;8.73;;;3.38;;
39074;SDS011;24826;52.070;20.970;2023-05-13T15:53:54;6.75;;;3.25;;
39074;SDS011;24826;52.070;20.970;2023-05-13T15:56:38;7.28;;;2.92;;
39074;SDS011;24826;52.070;20.970;2023-05-13T15:59:23;8.10;;;2.60;;
39074;SDS011;24826;52.070;20.970;2023-05-13T16:02:07;7.10;;;3.10;;
39074;SDS011;24826;52.070;20.970;2023-05-13T16:04:52;7.40;;;3.45;;
39074;SDS011;24826;52.070;20.970;2023-05-13T16:07:36;5.22;;;2.60;;
39074;SDS011;24826;52.070;20.970;2023-05-13T16:10:21;9.98;;;2.88;;
39074;SDS011;24826;52.070;20.970;2023-05-13T16:13:06;7.15;;;2.85;;
39074;SDS011;24826;52.070;20.970;2023-05-13T16:15:51;5.65;;;2.95;;
39074;SDS011;24826;52.070;20.970;2023-05-13T16:18:37;5.78;;;2.88;;
39074;SDS011;24826;52.070;20.970;2023-05-13T16:21:21;7.75;;;2.92;;
39074;SDS011;24826;52.070;20.970;2023-05-13T16:24:05;6.45;;;3.13;;
39074;SDS011;24826;52.070;20.970;2023-05-13T16:26:50;7.82;;;3.10;;
39074;SDS011;24826;52.070;20.970;2023-05-13T16:29:34;7.25;;;3.10;;
39074;SDS011;24826;52.070;20.970;2023-05-13T16:32:19;6.38;;;2.80;;
39074;SDS011;24826;52.070;20.970;2023-05-13T16:35:03;5.60;;;2.33;;
39074;SDS011;24826;52.070;20.970;2023-05-13T16:37:48;8.68;;;3.08;;
39074;SDS011;24826;52.070;20.970;2023-05-13T16:40:33;7.05;;;2.58;;
39074;SDS011;24826;52.070;20.970;2023-05-13T16:43:18;5.72;;;2.60;;
39074;SDS011;24826;52.070;20.970;2023-05-13T16:46:02;5.40;;;3.10;;